Time;durP1;ratioP1;P1;durP2;ratioP2;P2;SDS_P1;SDS_P2;PMS_P1;PMS_P2;Temp;Humidity;BMP_temperature;BMP_pressure;BME280_temperature;BME280_humidity;BME280_pressure;Samples;Min_cycle;Max_cycle;Signal;HPM_P1;HPM_P2
2022/05/31 00:01:56;;;;;;;6.20;4.27;;;8.70;99.90;;;;;;5069973;28;20459;-66
2022/05/31 00:04:23;;;;;;;4.40;4.00;;;8.70;99.90;;;;;;5069857;28;20463;-65
2022/05/31 00:06:50;;;;;;;6.63;4.37;;;8.70;99.90;;;;;;5070667;28;20479;-64
2022/05/31 00:09:17;;;;;;;6.60;5.20;;;8.80;99.90;;;;;;5070480;28;20454;-65
2022/05/31 00:11:44;;;;;;;5.30;4.63;;;8.80;99.90;;;;;;5069296;28;21184;-66
2022/05/31 00:14:12;;;;;;;6.80;4.53;;;8.80;99.90;;;;;;5070544;28;20451;-66
2022/05/31 00:16:41;;;;;;;5.13;4.20;;;8.80;99.90;;;;;;5069929;28;20443;-65
2022/05/31 00:19:08;;;;;;;5.80;4.00;;;8.70;99.90;;;;;;5070122;28;20821;-66
2022/05/31 00:21:41;;;;;;;7.17;4.80;;;8.60;99.90;;;;;;5069246;28;21015;-66
2022/05/31 00:24:10;;;;;;;5.33;4.83;;;8.60;99.90;;;;;;5070313;28;20454;-65
2022/05/31 00:26:38;;;;;;;5.53;4.37;;;8.50;99.90;;;;;;5069130;28;20447;-65
2022/05/31 00:29:05;;;;;;;7.20;5.03;;;8.50;99.90;;;;;;5070086;28;20512;-65
2022/05/31 00:31:32;;;;;;;5.10;4.27;;;8.50;99.90;;;;;;5068894;28;20478;-66
2022/05/31 00:34:01;;;;;;;7.80;4.40;;;8.50;99.90;;;;;;5069005;28;20458;-65
2022/05/31 00:36:28;;;;;;;6.80;5.20;;;8.50;99.90;;;;;;5069325;28;20443;-65
2022/05/31 00:38:56;;;;;;;5.63;4.50;;;8.50;99.90;;;;;;5069707;28;20947;-65
2022/05/31 00:41:26;;;;;;;5.17;4.67;;;8.50;99.90;;;;;;5069060;28;20474;-65
2022/05/31 00:43:57;;;;;;;5.10;4.30;;;8.60;99.90;;;;;;5069806;28;20451;-65
2022/05/31 00:46:28;;;;;;;5.20;4.70;;;8.60;99.90;;;;;;5069616;28;20546;-66
2022/05/31 00:48:57;;;;;;;6.50;4.67;;;8.40;99.90;;;;;;5069980;28;20478;-65
2022/05/31 00:51:35;;;;;;;6.73;5.17;;;8.40;99.90;;;;;;5068958;28;20965;-66
2022/05/31 00:54:06;;;;;;;6.57;5.77;;;8.30;99.90;;;;;;5069724;28;20439;-65
2022/05/31 00:56:33;;;;;;;4.90;4.40;;;8.30;99.90;;;;;;5069237;28;20447;-65
2022/05/31 00:59:12;;;;;;;5.30;4.57;;;8.30;99.90;;;;;;5069793;28;20450;-65
2022/05/31 01:01:43;;;;;;;4.80;4.30;;;8.30;99.90;;;;;;5068810;28;20487;-65
2022/05/31 01:04:11;;;;;;;6.10;4.83;;;8.20;99.90;;;;;;5069495;28;20486;-66
2022/05/31 01:06:39;;;;;;;7.00;5.00;;;8.20;99.90;;;;;;5069363;28;20443;-65
2022/05/31 01:09:07;;;;;;;4.87;4.40;;;8.20;99.90;;;;;;5069356;28;20586;-65
2022/05/31 01:11:38;;;;;;;5.00;4.23;;;8.10;99.90;;;;;;5068979;28;20505;-66
2022/05/31 01:14:06;;;;;;;5.40;4.33;;;8.10;99.90;;;;;;5069631;28;20869;-66
2022/05/31 01:16:33;;;;;;;5.83;4.30;;;8.00;99.90;;;;;;5069070;28;20971;-65
2022/05/31 01:19:00;;;;;;;6.57;4.80;;;8.00;99.90;;;;;;5069333;28;20465;-65
2022/05/31 01:21:28;;;;;;;6.00;4.93;;;8.00;99.90;;;;;;5068394;28;21057;-65
2022/05/31 01:24:00;;;;;;;6.07;4.23;;;8.00;99.90;;;;;;5069513;28;20450;-66
2022/05/31 01:26:35;;;;;;;4.87;4.10;;;7.90;99.90;;;;;;5069185;28;20450;-65
2022/05/31 01:29:06;;;;;;;6.90;5.07;;;7.80;99.90;;;;;;5069335;28;20483;-64
2022/05/31 01:31:38;;;;;;;4.83;4.10;;;7.80;99.90;;;;;;5068501;28;20471;-65
2022/05/31 01:34:12;;;;;;;5.30;4.80;;;7.80;99.90;;;;;;5069223;28;20444;-66
2022/05/31 01:36:46;;;;;;;5.73;4.70;;;7.80;99.90;;;;;;5069338;28;20446;-65
2022/05/31 01:39:18;;;;;;;4.83;4.33;;;7.70;99.90;;;;;;5072834;28;20961;-65
2022/05/31 01:41:51;;;;;;;5.60;4.60;;;7.70;99.90;;;;;;5072403;28;20481;-65
2022/05/31 01:44:21;;;;;;;5.67;4.80;;;7.60;99.90;;;;;;5072589;28;20550;-65
2022/05/31 01:46:50;;;;;;;5.63;4.90;;;7.50;99.90;;;;;;5073240;28;20986;-65
2022/05/31 01:49:17;;;;;;;6.33;4.70;;;7.50;99.90;;;;;;5073195;28;20579;-65
2022/05/31 01:51:46;;;;;;;9.10;6.00;;;7.40;99.90;;;;;;5071931;28;20473;-66
2022/05/31 01:54:15;;;;;;;7.93;5.20;;;7.40;99.90;;;;;;5072979;28;20550;-64
2022/05/31 01:56:46;;;;;;;6.47;5.43;;;7.50;99.90;;;;;;5072753;28;20461;-65
2022/05/31 01:59:14;;;;;;;5.17;4.33;;;7.50;99.90;;;;;;5072865;28;20530;-66
2022/05/31 02:01:42;;;;;;;6.20;5.60;;;7.50;99.90;;;;;;5071585;28;20470;-65
2022/05/31 02:04:10;;;;;;;5.23;4.60;;;7.40;99.90;;;;;;5072865;28;20526;-65
2022/05/31 02:06:39;;;;;;;5.43;4.93;;;7.30;99.90;;;;;;5072439;28;20446;-65
2022/05/31 02:09:10;;;;;;;5.73;5.03;;;7.30;99.90;;;;;;5072825;28;20486;-64
2022/05/31 02:11:38;;;;;;;5.00;4.50;;;7.30;99.90;;;;;;5071873;28;20814;-65
2022/05/31 02:14:07;;;;;;;6.23;5.57;;;7.40;99.90;;;;;;5073121;28;20831;-65
2022/05/31 02:16:34;;;;;;;6.33;5.13;;;7.40;99.90;;;;;;5072324;28;21043;-66
2022/05/31 02:19:23;;;;;;;5.40;4.90;;;7.40;99.90;;;;;;5072849;28;20453;-66
2022/05/31 02:21:50;;;;;;;5.83;4.97;;;7.30;99.90;;;;;;5071560;28;20495;-66
2022/05/31 02:24:19;;;;;;;7.97;5.33;;;7.30;99.90;;;;;;5072472;28;20439;-65
2022/05/31 02:26:46;;;;;;;5.93;5.10;;;7.30;99.90;;;;;;5072624;28;20520;-65
2022/05/31 02:29:15;;;;;;;5.70;5.10;;;7.30;99.90;;;;;;5072336;28;20860;-65
2022/05/31 02:31:43;;;;;;;6.23;5.63;;;7.30;99.90;;;;;;5071448;28;20906;-66
2022/05/31 02:34:10;;;;;;;7.50;5.20;;;7.20;99.90;;;;;;5071560;28;20447;-65
2022/05/31 02:36:37;;;;;;;5.73;5.13;;;7.30;99.90;;;;;;5071418;28;20512;-64
2022/05/31 02:39:06;;;;;;;7.90;5.63;;;7.30;99.90;;;;;;5072067;28;20446;-65
2022/05/31 02:41:34;;;;;;;6.23;5.27;;;7.30;99.90;;;;;;5071310;28;20837;-65
2022/05/31 02:44:01;;;;;;;7.70;5.00;;;7.30;99.90;;;;;;5071984;28;20824;-64
2022/05/31 02:46:28;;;;;;;8.00;5.43;;;7.30;99.90;;;;;;5071348;28;20807;-64
2022/05/31 02:48:55;;;;;;;6.03;5.33;;;7.20;99.90;;;;;;5071098;28;20474;-65
2022/05/31 02:51:22;;;;;;;6.33;5.23;;;7.30;99.90;;;;;;5071221;28;20473;-65
2022/05/31 02:53:49;;;;;;;8.07;5.63;;;7.30;99.90;;;;;;5072107;28;20534;-65
2022/05/31 02:56:16;;;;;;;7.17;5.30;;;7.30;99.90;;;;;;5071561;28;20447;-64
2022/05/31 02:58:44;;;;;;;6.17;4.63;;;7.20;99.90;;;;;;5071753;28;20446;-65
2022/05/31 03:01:23;;;;;;;5.80;5.23;;;7.20;99.90;;;;;;5070613;28;20570;-65
2022/05/31 03:03:50;;;;;;;5.93;5.33;;;7.10;99.90;;;;;;5071526;28;20955;-62
2022/05/31 03:06:18;;;;;;;8.20;6.10;;;7.00;99.90;;;;;;5071143;28;20937;-64
2022/05/31 03:08:45;;;;;;;6.87;5.60;;;7.10;99.90;;;;;;5071434;28;20514;-65
2022/05/31 03:11:15;;;;;;;5.90;5.20;;;7.10;99.90;;;;;;5070773;28;20470;-65
2022/05/31 03:13:46;;;;;;;6.77;5.17;;;7.10;99.90;;;;;;5071550;28;20439;-65
2022/05/31 03:16:14;;;;;;;7.40;5.40;;;7.20;99.90;;;;;;5070908;28;20451;-65
2022/05/31 03:18:50;;;;;;;5.93;5.33;;;7.20;99.90;;;;;;5071377;28;20949;-66
2022/05/31 03:21:22;;;;;;;6.40;5.50;;;7.20;99.90;;;;;;5070400;28;20469;-65
2022/05/31 03:23:53;;;;;;;6.97;5.33;;;7.20;99.90;;;;;;5071311;28;20451;-66
2022/05/31 03:26:21;;;;;;;5.83;5.23;;;7.20;99.90;;;;;;5070664;28;20447;-66
2022/05/31 03:28:50;;;;;;;7.47;5.67;;;7.20;99.90;;;;;;5071253;28;20487;-65
2022/05/31 03:31:17;;;;;;;7.20;5.33;;;7.10;99.90;;;;;;5070262;28;20983;-65
2022/05/31 03:33:43;;;;;;;6.87;6.00;;;7.10;99.90;;;;;;5071365;28;20451;-66
2022/05/31 03:36:11;;;;;;;5.70;5.03;;;7.00;99.90;;;;;;5070498;28;20538;-65
2022/05/31 03:38:38;;;;;;;8.07;7.00;;;7.10;99.90;;;;;;5071067;28;20473;-65
2022/05/31 03:41:04;;;;;;;6.37;5.10;;;7.10;99.90;;;;;;5069849;28;20469;-65
2022/05/31 03:43:33;;;;;;;7.57;5.10;;;7.00;99.90;;;;;;5071088;28;20447;-64
2022/05/31 03:46:01;;;;;;;6.87;5.77;;;7.00;99.90;;;;;;5070476;28;20454;-66
2022/05/31 03:48:28;;;;;;;7.97;5.43;;;7.10;99.90;;;;;;5070894;28;20863;-64
2022/05/31 03:50:59;;;;;;;7.40;5.80;;;7.20;99.90;;;;;;5069838;28;20474;-65
2022/05/31 03:53:27;;;;;;;7.37;5.10;;;7.30;99.90;;;;;;5070628;28;20524;-66
2022/05/31 03:55:54;;;;;;;6.57;4.67;;;7.50;99.90;;;;;;5070108;28;20447;-65
2022/05/31 03:58:21;;;;;;;7.03;5.20;;;7.70;99.90;;;;;;5070661;28;20441;-64
2022/05/31 04:00:48;;;;;;;6.30;5.37;;;7.80;99.90;;;;;;5065582;28;20475;-64
2022/05/31 04:03:17;;;;;;;5.50;4.97;;;8.00;99.90;;;;;;5070433;28;20471;-65
2022/05/31 04:05:43;;;;;;;7.57;5.30;;;8.20;99.90;;;;;;5066937;28;20443;-65
2022/05/31 04:08:12;;;;;;;6.07;5.00;;;8.30;99.90;;;;;;5070010;28;20489;-66
2022/05/31 04:10:40;;;;;;;6.97;4.47;;;8.50;99.90;;;;;;5069079;28;20849;-65
2022/05/31 04:13:07;;;;;;;5.23;4.73;;;8.50;99.90;;;;;;5069438;28;20528;-65
2022/05/31 04:15:34;;;;;;;7.43;5.07;;;8.50;99.90;;;;;;5069954;28;20447;-65
2022/05/31 04:18:02;;;;;;;6.00;5.33;;;8.60;99.90;;;;;;5069717;28;20538;-65
2022/05/31 04:20:30;;;;;;;6.20;5.20;;;8.70;99.90;;;;;;5068625;28;20475;-66
2022/05/31 04:23:57;;;;;;;5.40;4.47;;;8.70;99.90;;;;;;5069955;28;20444;-65
2022/05/31 04:25:45;;;;;;;6.47;5.07;;;8.70;99.90;;;;;;5064764;28;20772;-66
2022/05/31 04:28:12;;;;;;;6.57;5.77;;;8.70;99.90;;;;;;5070062;28;20479;-66
2022/05/31 04:30:39;;;;;;;7.97;5.70;;;8.70;99.90;;;;;;5069620;28;20474;-65
2022/05/31 04:33:06;;;;;;;9.40;5.30;;;8.50;99.90;;;;;;5071605;28;21181;-66
2022/05/31 04:35:34;;;;;;;10.10;6.00;;;8.30;99.90;;;;;;5069717;28;20542;-63
2022/05/31 04:38:01;;;;;;;8.53;5.57;;;8.20;99.90;;;;;;5070520;28;20459;-64
2022/05/31 04:40:28;;;;;;;5.73;5.17;;;8.10;99.90;;;;;;5069586;28;20470;-65
2022/05/31 04:42:54;;;;;;;6.87;5.53;;;8.10;99.90;;;;;;5069226;28;20542;-69
2022/05/31 04:45:21;;;;;;;7.10;5.27;;;8.00;99.90;;;;;;5069360;28;20534;-70
2022/05/31 04:47:48;;;;;;;7.40;5.87;;;8.00;99.90;;;;;;5069766;28;20467;-67
2022/05/31 04:50:15;;;;;;;6.70;6.00;;;8.00;99.90;;;;;;5069456;28;20491;-67
2022/05/31 04:52:43;;;;;;;9.33;6.23;;;8.20;99.90;;;;;;5070324;28;20493;-67
2022/05/31 04:55:10;;;;;;;8.00;5.50;;;8.20;99.90;;;;;;5069267;28;20451;-67
2022/05/31 04:57:37;;;;;;;6.53;5.73;;;8.40;99.90;;;;;;5069938;28;20453;-67
2022/05/31 05:00:06;;;;;;;6.50;5.13;;;8.60;99.90;;;;;;5068905;28;20475;-67
2022/05/31 05:02:33;;;;;;;5.83;5.30;;;8.70;99.90;;;;;;5069748;28;21185;-66
2022/05/31 05:05:00;;;;;;;6.33;5.17;;;8.70;99.90;;;;;;5069419;28;20826;-67
2022/05/31 05:07:30;;;;;;;5.80;5.20;;;8.80;99.90;;;;;;5069957;28;20531;-67
2022/05/31 05:09:58;;;;;;;6.47;5.20;;;8.90;99.90;;;;;;5068387;28;20483;-68
2022/05/31 05:12:25;;;;;;;9.00;5.70;;;9.00;99.90;;;;;;5069322;28;20550;-67
2022/05/31 05:14:51;;;;;;;8.00;6.40;;;9.10;99.90;;;;;;5073016;28;20533;-67
2022/05/31 05:17:18;;;;;;;6.30;5.37;;;9.20;99.90;;;;;;5072379;28;20460;-67
2022/05/31 05:19:45;;;;;;;6.50;5.73;;;9.30;99.90;;;;;;5073861;28;20489;-66
2022/05/31 05:22:12;;;;;;;9.97;8.60;;;9.30;99.90;;;;;;5073702;28;20971;-67
2022/05/31 05:24:39;;;;;;;5.70;5.20;;;9.50;99.90;;;;;;5069846;28;20462;-67
2022/05/31 05:27:07;;;;;;;7.60;5.20;;;9.60;99.90;;;;;;5066838;28;20457;-67
2022/05/31 05:32:18;;;;;;;6.17;5.17;;;9.90;99.90;;;;;;5062866;28;20459;-67
2022/05/31 05:34:49;;;;;;;6.40;5.60;;;10.00;99.90;;;;;;5068082;28;20442;-66
2022/05/31 05:37:17;;;;;;;6.50;5.70;;;10.20;99.90;;;;;;5073880;28;20443;-65
2022/05/31 05:39:45;;;;;;;6.67;5.37;;;10.20;99.90;;;;;;5067311;28;20443;-66
2022/05/31 05:42:13;;;;;;;6.60;5.90;;;10.30;99.90;;;;;;5072706;28;20450;-65
2022/05/31 05:44:41;;;;;;;7.20;5.27;;;10.50;99.90;;;;;;5073052;28;20485;-67
2022/05/31 05:47:08;;;;;;;6.23;5.63;;;10.60;99.90;;;;;;5072929;28;20446;-67
2022/05/31 05:49:35;;;;;;;7.17;5.67;;;10.70;99.90;;;;;;5069803;28;20944;-67
2022/05/31 05:52:04;;;;;;;8.90;6.07;;;10.90;99.90;;;;;;5072181;28;21156;-67
2022/05/31 05:54:31;;;;;;;6.63;5.03;;;11.00;99.90;;;;;;5072638;28;20454;-67
2022/05/31 05:56:58;;;;;;;7.70;5.70;;;11.20;99.90;;;;;;5072841;28;20447;-67
2022/05/31 05:59:26;;;;;;;5.77;5.07;;;11.30;99.90;;;;;;5072956;28;20538;-67
2022/05/31 06:01:57;;;;;;;7.27;5.60;;;11.40;99.90;;;;;;5071337;28;20470;-67
2022/05/31 06:04:29;;;;;;;6.30;5.67;;;11.50;99.90;;;;;;5060870;28;20549;-67
2022/05/31 06:07:04;;;;;;;7.20;6.03;;;11.60;99.90;;;;;;5063163;28;20835;-66
2022/05/31 06:09:35;;;;;;;7.30;6.00;;;11.80;99.90;;;;;;5065093;28;20574;-67
2022/05/31 06:12:05;;;;;;;6.90;5.90;;;12.00;99.90;;;;;;5062713;28;20941;-67
2022/05/31 06:14:38;;;;;;;8.40;5.50;;;12.30;99.90;;;;;;5066227;28;21527;-67
2022/05/31 06:17:09;;;;;;;7.27;5.70;;;12.60;99.90;;;;;;5063919;28;20443;-67
2022/05/31 06:19:38;;;;;;;7.07;4.57;;;13.10;99.90;;;;;;5066919;28;20522;-68
2022/05/31 06:22:07;;;;;;;6.07;4.73;;;13.50;99.90;;;;;;5068254;28;20439;-66
2022/05/31 06:24:35;;;;;;;8.43;4.83;;;13.90;99.90;;;;;;5071126;28;20526;-67
2022/05/31 06:27:02;;;;;;;54.57;11.23;;;14.20;99.90;;;;;;5068206;28;20532;-67
2022/05/31 06:29:29;;;;;;;8.17;5.30;;;14.60;99.90;;;;;;5066256;28;20478;-67
2022/05/31 06:31:57;;;;;;;7.50;5.40;;;14.70;99.90;;;;;;5070962;28;21064;-67
2022/05/31 06:34:24;;;;;;;12.10;6.40;;;14.60;99.90;;;;;;5072017;28;20501;-67
2022/05/31 06:37:02;;;;;;;7.20;4.83;;;14.80;99.90;;;;;;5072261;28;20473;-67
2022/05/31 06:39:29;;;;;;;7.23;4.67;;;15.00;99.90;;;;;;5058272;28;20447;-68
2022/05/31 06:41:55;;;;;;;8.13;5.80;;;14.80;99.90;;;;;;5070789;28;20968;-67
2022/05/31 06:44:22;;;;;;;6.87;4.93;;;14.80;99.90;;;;;;5067308;28;20451;-67
2022/05/31 06:46:49;;;;;;;6.07;5.47;;;14.60;99.90;;;;;;5060141;28;20443;-67
2022/05/31 06:49:17;;;;;;;9.53;5.37;;;14.60;99.90;;;;;;5068386;28;20485;-67
2022/05/31 06:57:14;;;;;;;5.70;4.90;;;15.60;99.90;;;;;;5073102;28;20795;-68
2022/05/31 06:59:41;;;;;;;5.83;5.33;;;16.20;99.90;;;;;;5069867;28;20454;-67
2022/05/31 07:02:08;;;;;;;7.73;5.40;;;16.60;99.90;;;;;;5066666;28;20910;-66
2022/05/31 07:04:37;;;;;;;6.73;5.27;;;16.70;99.90;;;;;;5068240;28;20459;-68
2022/05/31 07:07:04;;;;;;;6.63;5.10;;;16.60;99.90;;;;;;5059901;28;20476;-67
2022/05/31 07:09:32;;;;;;;5.90;5.30;;;16.50;99.90;;;;;;5069821;28;20490;-67
2022/05/31 07:11:59;;;;;;;7.83;5.10;;;16.40;99.90;;;;;;5066900;28;20466;-68
2022/05/31 07:14:27;;;;;;;7.03;4.97;;;16.40;99.90;;;;;;5064884;28;20459;-68
2022/05/31 07:16:54;;;;;;;6.03;4.60;;;16.30;99.90;;;;;;5068254;28;20498;-68
2022/05/31 07:19:21;;;;;;;6.43;4.67;;;16.40;99.90;;;;;;5063809;28;21178;-68
2022/05/31 07:21:49;;;;;;;6.30;4.80;;;16.50;99.90;;;;;;5070022;28;20463;-68
2022/05/31 07:24:16;;;;;;;6.27;5.10;;;16.70;99.90;;;;;;5070837;28;20447;-66
2022/05/31 07:26:43;;;;;;;6.80;5.37;;;16.70;99.90;;;;;;5070940;28;20966;-69
2022/05/31 07:29:10;;;;;;;7.00;4.83;;;16.60;99.90;;;;;;5070924;28;21026;-67
2022/05/31 07:31:37;;;;;;;6.47;5.40;;;16.70;99.90;;;;;;5070218;28;20463;-67
2022/05/31 07:34:04;;;;;;;5.80;4.80;;;16.80;99.90;;;;;;5070887;28;20443;-66
2022/05/31 07:36:31;;;;;;;7.33;4.97;;;16.80;99.90;;;;;;5063778;28;20968;-66
2022/05/31 07:38:59;;;;;;;6.50;4.50;;;16.90;99.90;;;;;;5067308;28;20455;-66
2022/05/31 07:41:28;;;;;;;6.90;5.13;;;17.00;99.90;;;;;;5067163;28;21017;-66
2022/05/31 07:43:55;;;;;;;6.30;5.30;;;17.20;99.90;;;;;;5070571;28;20443;-66
2022/05/31 07:46:22;;;;;;;8.23;5.47;;;17.20;99.90;;;;;;5070401;28;20481;-67
2022/05/31 07:48:48;;;;;;;7.53;5.10;;;17.40;99.90;;;;;;5070705;28;20798;-66
2022/05/31 07:51:15;;;;;;;5.30;4.70;;;17.70;99.90;;;;;;5069713;28;20537;-69
2022/05/31 07:53:42;;;;;;;7.43;5.20;;;18.10;99.90;;;;;;5070603;28;20590;-66
2022/05/31 07:56:10;;;;;;;6.73;4.30;;;18.30;99.90;;;;;;5069191;28;20538;-67
2022/05/31 07:58:39;;;;;;;13.70;5.27;;;18.30;99.80;;;;;;5070100;28;20447;-67
2022/05/31 08:01:10;;;;;;;93.87;16.50;;;18.70;99.90;;;;;;5069180;28;20463;-68
2022/05/31 08:03:38;;;;;;;7.10;4.10;;;18.80;99.90;;;;;;5070585;28;20447;-68
2022/05/31 08:06:07;;;;;;;5.33;3.70;;;18.90;97.80;;;;;;5066341;28;20467;-67
2022/05/31 08:08:34;;;;;;;7.83;4.57;;;19.10;98.40;;;;;;5066837;28;20500;-67
2022/05/31 08:11:04;;;;;;;6.43;3.50;;;19.20;98.70;;;;;;5063564;28;20483;-67
2022/05/31 08:13:32;;;;;;;5.87;3.20;;;19.30;97.70;;;;;;5070116;28;20534;-67
2022/05/31 08:15:59;;;;;;;7.00;2.97;;;19.30;97.80;;;;;;5069867;28;20829;-67
2022/05/31 08:18:26;;;;;;;5.17;2.97;;;19.20;98.00;;;;;;5068324;28;20904;-68
2022/05/31 08:20:59;;;;;;;3.50;2.57;;;19.30;97.90;;;;;;5063103;28;20472;-67
2022/05/31 08:23:26;;;;;;;3.63;2.17;;;19.30;97.70;;;;;;5067632;28;20976;-67
2022/05/31 08:25:54;;;;;;;5.73;2.77;;;19.50;98.30;;;;;;5067855;28;20447;-67
2022/05/31 08:28:21;;;;;;;6.27;2.80;;;19.50;97.30;;;;;;5053243;28;20475;-67
2022/05/31 08:30:54;;;;;;;3.63;2.33;;;19.40;96.70;;;;;;5069037;28;20485;-67
2022/05/31 08:33:20;;;;;;;6.23;2.97;;;19.40;97.10;;;;;;5070106;28;20439;-67
2022/05/31 08:35:47;;;;;;;10.70;3.17;;;19.50;96.40;;;;;;5067964;28;20474;-67
2022/05/31 08:38:15;;;;;;;5.50;2.60;;;19.70;97.60;;;;;;5068530;28;20941;-67
2022/05/31 08:40:58;;;;;;;3.47;2.60;;;19.80;96.40;;;;;;5060004;28;20460;-67
2022/05/31 08:43:33;;;;;;;4.77;2.27;;;19.70;96.40;;;;;;5066588;28;20858;-67
2022/05/31 08:46:05;;;;;;;4.50;2.47;;;19.60;97.00;;;;;;5069155;28;20445;-67
2022/05/31 08:48:34;;;;;;;3.93;2.73;;;19.70;95.80;;;;;;5069648;28;20511;-67
2022/05/31 08:59:30;;;;;;;5.50;2.97;;;20.60;96.40;;;;;;5069726;28;20522;-67
2022/05/31 09:02:02;;;;;;;4.20;2.30;;;21.30;94.90;;;;;;5068684;28;20478;-69
2022/05/31 09:04:36;;;;;;;5.60;2.70;;;21.90;94.30;;;;;;5069049;28;20447;-68
2022/05/31 09:07:07;;;;;;;3.90;2.40;;;22.20;92.10;;;;;;5069444;28;20578;-67
2022/05/31 09:09:39;;;;;;;6.00;3.10;;;22.00;91.80;;;;;;5069386;28;20514;-67
2022/05/31 09:12:17;;;;;;;3.97;2.40;;;22.10;91.60;;;;;;5068659;28;20439;-68
2022/05/31 09:14:51;;;;;;;4.60;2.57;;;22.60;93.70;;;;;;5065207;28;20442;-68
2022/05/31 09:17:27;;;;;;;5.53;2.80;;;22.90;90.70;;;;;;5060043;28;20884;-68
2022/05/31 09:20:02;;;;;;;5.47;2.63;;;23.20;92.00;;;;;;5062843;28;20821;-68
2022/05/31 09:22:29;;;;;;;7.27;2.97;;;23.40;91.20;;;;;;5066003;28;20557;-68
2022/05/31 09:24:56;;;;;;;4.83;2.40;;;23.40;90.70;;;;;;5063278;28;20436;-69
2022/05/31 09:27:31;;;;;;;6.20;2.10;;;23.60;88.30;;;;;;5068039;28;20835;-67
2022/05/31 09:30:04;;;;;;;3.67;2.53;;;23.70;87.60;;;;;;5064919;28;21059;-68
2022/05/31 09:32:59;;;;;;;5.23;2.43;;;23.90;90.40;;;;;;5063614;28;20443;-68
2022/05/31 09:35:43;;;;;;;8.10;3.03;;;24.10;87.40;;;;;;5058667;28;21025;-67
2022/05/31 09:38:38;;;;;;;4.33;2.10;;;24.10;86.80;;;;;;5069217;28;20439;-68
2022/05/31 09:41:11;;;;;;;4.50;2.43;;;24.20;85.80;;;;;;5055233;28;20534;-68
2022/05/31 09:43:42;;;;;;;3.97;2.47;;;24.10;83.10;;;;;;5068272;28;20530;-67
2022/05/31 09:46:11;;;;;;;11.20;2.50;;;23.60;82.60;;;;;;5053018;28;20922;-67
2022/05/31 09:48:48;;;;;;;4.60;2.87;;;23.40;86.20;;;;;;5052352;28;20498;-69
2022/05/31 09:51:23;;;;;;;3.47;2.40;;;23.40;83.40;;;;;;5068100;28;20490;-69
2022/05/31 09:59:25;;;;;;;5.70;3.30;;;24.60;81.30;;;;;;5071166;28;20928;-68
2022/05/31 10:01:52;;;;;;;4.20;2.77;;;24.70;79.50;;;;;;5071861;28;20471;-67
2022/05/31 10:04:26;;;;;;;4.00;2.33;;;24.90;78.60;;;;;;5072152;28;20443;-72
2022/05/31 10:06:57;;;;;;;3.90;2.47;;;25.60;80.40;;;;;;5072650;28;20458;-69
2022/05/31 10:09:33;;;;;;;5.13;2.90;;;26.40;77.10;;;;;;5072006;28;20442;-68
2022/05/31 10:12:17;;;;;;;7.00;3.10;;;26.40;73.90;;;;;;5070312;28;20478;-66
2022/05/31 10:14:46;;;;;;;4.33;2.53;;;26.40;72.40;;;;;;5070519;28;20475;-69
2022/05/31 10:17:36;;;;;;;12.63;3.80;;;26.50;73.50;;;;;;5065704;28;20458;-68
2022/05/31 10:20:18;;;;;;;6.83;2.50;;;27.60;71.80;;;;;;5063950;28;21023;-68
2022/05/31 10:23:00;;;;;;;5.27;2.70;;;28.30;69.40;;;;;;5070020;28;20822;-67
2022/05/31 10:25:30;;;;;;;5.17;2.63;;;28.50;65.20;;;;;;5069909;28;20443;-68
2022/05/31 10:28:02;;;;;;;4.20;2.40;;;27.80;63.80;;;;;;5067124;28;20500;-67
2022/05/31 10:30:30;;;;;;;3.77;2.53;;;27.30;64.90;;;;;;5070235;28;20491;-68
2022/05/31 10:32:59;;;;;;;3.70;2.30;;;26.60;68.50;;;;;;5072279;28;20800;-68
2022/05/31 10:35:29;;;;;;;4.70;2.70;;;26.10;67.20;;;;;;5072091;28;20457;-68
2022/05/31 10:38:01;;;;;;;2.93;2.37;;;25.30;68.20;;;;;;5071689;28;20443;-69
2022/05/31 10:40:35;;;;;;;6.57;2.90;;;25.30;72.90;;;;;;5070645;28;20549;-67
2022/05/31 10:43:13;;;;;;;6.80;3.53;;;24.90;71.40;;;;;;5071783;28;20443;-68
2022/05/31 10:45:40;;;;;;;6.40;2.73;;;24.10;72.00;;;;;;5071599;28;21011;-68
2022/05/31 10:48:07;;;;;;;6.50;2.70;;;23.60;76.00;;;;;;5071585;28;20454;-67
2022/05/31 10:50:49;;;;;;;3.83;2.87;;;24.10;76.40;;;;;;5070622;28;20486;-68
2022/05/31 10:53:25;;;;;;;8.00;2.60;;;24.50;73.30;;;;;;5068078;28;20463;-67
2022/05/31 10:55:59;;;;;;;7.13;2.57;;;24.70;72.40;;;;;;5067479;28;20442;-68
2022/05/31 10:58:41;;;;;;;5.60;2.60;;;24.90;71.10;;;;;;5067435;28;20844;-69
2022/05/31 11:01:19;;;;;;;4.27;2.80;;;25.30;71.00;;;;;;5068569;28;20490;-68
2022/05/31 11:03:58;;;;;;;4.33;2.70;;;25.00;68.20;;;;;;5069349;28;20457;-69
2022/05/31 11:06:38;;;;;;;4.87;2.10;;;24.80;69.40;;;;;;5064840;28;20439;-69
2022/05/31 11:12:11;;;;;;;2.97;2.33;;;25.10;69.20;;;;;;5050176;28;20530;-68
2022/05/31 11:14:53;;;;;;;7.10;2.87;;;25.50;68.60;;;;;;5050789;28;20959;-67
2022/05/31 11:17:35;;;;;;;8.50;3.00;;;25.00;67.70;;;;;;5051271;28;20459;-68
2022/05/31 11:20:08;;;;;;;10.90;2.53;;;24.70;70.30;;;;;;5052679;28;20467;-68
2022/05/31 11:22:56;;;;;;;9.17;3.10;;;24.70;69.80;;;;;;5070732;28;20504;-69
2022/05/31 11:25:51;;;;;;;5.00;4.40;;;25.10;68.80;;;;;;5070163;28;20439;-67
2022/05/31 11:28:38;;;;;;;4.63;2.60;;;24.70;68.40;;;;;;5071021;28;21036;-69
2022/05/31 11:31:17;;;;;;;3.30;2.17;;;24.00;68.60;;;;;;5070228;28;20528;-68
2022/05/31 11:34:02;;;;;;;3.70;2.10;;;24.00;70.70;;;;;;5070962;28;20443;-68
2022/05/31 11:36:41;;;;;;;3.07;1.90;;;24.30;69.50;;;;;;5070383;28;20454;-69
2022/05/31 11:39:22;;;;;;;4.53;2.30;;;24.70;67.40;;;;;;5070879;28;20453;-69
2022/05/31 11:42:03;;;;;;;3.73;2.40;;;24.40;66.50;;;;;;5069978;28;20486;-68
2022/05/31 11:45:00;;;;;;;3.57;2.30;;;24.30;65.40;;;;;;5070326;28;20442;-68
2022/05/31 11:47:50;;;;;;;4.80;2.10;;;24.10;65.80;;;;;;5065624;28;20459;-68
2022/05/31 11:50:27;;;;;;;5.10;2.70;;;24.20;68.10;;;;;;5063903;28;20572;-68
2022/05/31 11:53:08;;;;;;;4.10;2.40;;;24.50;65.80;;;;;;5065735;28;20450;-69
2022/05/31 11:55:41;;;;;;;5.33;1.90;;;24.90;64.90;;;;;;5065280;28;20447;-68
2022/05/31 11:58:27;;;;;;;6.10;2.47;;;24.60;64.30;;;;;;5063910;28;20451;-68
2022/05/31 12:01:03;;;;;;;4.23;2.00;;;24.80;63.60;;;;;;5065922;28;20477;-69
2022/05/31 12:03:38;;;;;;;3.50;2.00;;;25.60;61.80;;;;;;5061329;28;20539;-68
2022/05/31 12:06:13;;;;;;;3.90;2.17;;;26.50;63.60;;;;;;5066213;28;20527;-67
2022/05/31 12:08:46;;;;;;;4.13;2.30;;;26.70;60.60;;;;;;5070052;28;20454;-66
2022/05/31 12:11:21;;;;;;;4.00;2.30;;;26.80;59.30;;;;;;5068997;28;20478;-68
2022/05/31 12:13:49;;;;;;;4.43;2.10;;;26.70;58.00;;;;;;5061337;28;20447;-68
2022/05/31 12:16:17;;;;;;;4.10;1.70;;;26.80;59.20;;;;;;5069930;28;20457;-68
2022/05/31 12:18:55;;;;;;;5.33;1.83;;;27.30;58.60;;;;;;5070149;28;20568;-69
2022/05/31 12:21:29;;;;;;;3.93;2.00;;;26.80;57.20;;;;;;5068549;28;20463;-66
2022/05/31 12:24:05;;;;;;;3.67;1.80;;;26.50;57.50;;;;;;5069595;28;20948;-69
2022/05/31 12:26:38;;;;;;;3.23;1.83;;;26.80;57.00;;;;;;5069406;28;20539;-68
2022/05/31 12:29:15;;;;;;;4.30;1.80;;;26.30;56.00;;;;;;5069872;28;20446;-67
2022/05/31 12:31:42;;;;;;;3.50;2.07;;;25.80;56.20;;;;;;5068947;28;20486;-68
2022/05/31 12:34:15;;;;;;;5.77;2.17;;;24.80;58.10;;;;;;5069374;28;20451;-68
2022/05/31 12:36:58;;;;;;;6.83;2.50;;;24.30;58.60;;;;;;5067390;28;20443;-68
2022/05/31 12:39:30;;;;;;;3.30;1.90;;;24.20;59.00;;;;;;5065518;28;20447;-69
2022/05/31 12:41:59;;;;;;;3.77;2.00;;;24.80;59.90;;;;;;5066176;28;20440;-68
2022/05/31 12:44:30;;;;;;;3.97;2.07;;;25.50;59.70;;;;;;5062369;28;20451;-70
2022/05/31 12:47:12;;;;;;;3.33;2.20;;;25.50;58.70;;;;;;5064701;28;20522;-68
2022/05/31 12:49:51;;;;;;;9.57;2.20;;;25.40;59.40;;;;;;5066284;28;20455;-69
2022/05/31 12:55:52;;;;;;;3.67;1.77;;;25.10;57.00;;;;;;5067794;28;20412;-69
2022/05/31 12:58:36;;;;;;;7.10;2.50;;;24.40;56.40;;;;;;5067630;28;20459;-68
2022/05/31 13:01:27;;;;;;;4.23;1.80;;;24.00;57.60;;;;;;5063285;28;20573;-68
2022/05/31 13:03:58;;;;;;;3.30;2.07;;;23.40;58.00;;;;;;5063534;28;20538;-68
2022/05/31 13:06:36;;;;;;;3.47;2.20;;;23.30;58.70;;;;;;5063375;28;20458;-68
2022/05/31 13:09:06;;;;;;;3.30;1.87;;;23.20;58.90;;;;;;5064188;28;20628;-67
2022/05/31 13:20:26;;;;;;;4.27;1.97;;;23.90;59.80;;;;;;5068357;28;20453;-68
2022/05/31 13:22:58;;;;;;;5.40;2.07;;;24.40;58.70;;;;;;5069445;28;20443;-69
2022/05/31 13:25:28;;;;;;;4.50;2.00;;;24.50;57.00;;;;;;5069100;28;20442;-68
2022/05/31 13:28:00;;;;;;;3.70;2.10;;;24.30;57.70;;;;;;5066798;28;20451;-68
2022/05/31 13:30:30;;;;;;;3.77;1.60;;;24.20;57.10;;;;;;5062610;28;20466;-66
2022/05/31 13:32:58;;;;;;;5.00;2.20;;;24.20;57.60;;;;;;5064346;28;20432;-68
2022/05/31 13:35:28;;;;;;;5.67;1.60;;;24.20;57.40;;;;;;5067361;28;20439;-65
2022/05/31 13:37:58;;;;;;;3.13;1.90;;;24.30;57.10;;;;;;5069586;28;20450;-67
2022/05/31 13:40:35;;;;;;;5.80;1.80;;;24.10;57.50;;;;;;5069941;28;20455;-69
2022/05/31 13:43:05;;;;;;;3.53;1.93;;;23.80;57.20;;;;;;5072712;28;20453;-68
2022/05/31 13:45:33;;;;;;;9.10;2.33;;;23.70;57.90;;;;;;5070554;28;20882;-69
2022/05/31 13:48:09;;;;;;;5.27;1.87;;;24.00;58.40;;;;;;5072466;28;20450;-68